sensor_id;sensor_type;location;lat;lon;timestamp;pressure;altitude;pressure_sealevel;temperature;humidity
29121;BME280;16191;49.548;8.658;2023-06-10T00:02:01;100019.19;;;20.91;61.34
29121;BME280;16191;49.548;8.658;2023-06-10T00:04:28;100023.06;;;20.87;61.48
29121;BME280;16191;49.548;8.658;2023-06-10T00:06:55;100025.00;;;20.85;61.53
29121;BME280;16191;49.548;8.658;2023-06-10T00:09:21;100028.47;;;20.76;61.69
29121;BME280;16191;49.548;8.658;2023-06-10T00:11:49;100028.16;;;20.69;61.89
29121;BME280;16191;49.548;8.658;2023-06-10T00:14:16;100026.41;;;20.59;62.75
29121;BME280;16191;49.548;8.658;2023-06-10T00:16:42;100027.31;;;20.69;61.63
29121;BME280;16191;49.548;8.658;2023-06-10T00:19:12;100026.53;;;20.78;61.10
29121;BME280;16191;49.548;8.658;2023-06-10T00:21:41;100029.47;;;20.84;60.47
29121;BME280;16191;49.548;8.658;2023-06-10T00:24:08;100022.88;;;20.79;60.04
29121;BME280;16191;49.548;8.658;2023-06-10T00:26:39;100030.41;;;20.74;60.44
29121;BME280;16191;49.548;8.658;2023-06-10T00:29:06;100020.78;;;20.73;60.42
29121;BME280;16191;49.548;8.658;2023-06-10T00:31:39;100031.06;;;20.66;60.91
29121;BME280;16191;49.548;8.658;2023-06-10T00:34:07;100029.91;;;20.59;61.29
29121;BME280;16191;49.548;8.658;2023-06-10T00:36:34;100026.13;;;20.52;62.01
29121;BME280;16191;49.548;8.658;2023-06-10T00:39:02;100030.97;;;20.47;62.72
29121;BME280;16191;49.548;8.658;2023-06-10T00:41:31;100030.38;;;20.43;63.33
29121;BME280;16191;49.548;8.658;2023-06-10T00:43:58;100027.66;;;20.34;64.98
29121;BME280;16191;49.548;8.658;2023-06-10T00:46:24;100024.81;;;20.26;66.07
29121;BME280;16191;49.548;8.658;2023-06-10T00:48:55;100027.00;;;20.20;66.70
29121;BME280;16191;49.548;8.658;2023-06-10T00:51:22;100036.25;;;20.26;66.77
29121;BME280;16191;49.548;8.658;2023-06-10T00:53:49;100030.94;;;20.26;67.47
29121;BME280;16191;49.548;8.658;2023-06-10T00:56:16;100028.09;;;20.18;68.86
29121;BME280;16191;49.548;8.658;2023-06-10T00:58:43;100035.06;;;20.19;69.20
29121;BME280;16191;49.548;8.658;2023-06-10T01:01:10;100042.56;;;20.14;69.87
29121;BME280;16191;49.548;8.658;2023-06-10T01:03:39;100040.50;;;20.17;70.31
29121;BME280;16191;49.548;8.658;2023-06-10T01:09:13;100044.69;;;19.99;72.57
29121;BME280;16191;49.548;8.658;2023-06-10T01:11:52;100049.47;;;19.84;74.61
29121;BME280;16191;49.548;8.658;2023-06-10T01:14:21;100047.84;;;19.93;74.01
29121;BME280;16191;49.548;8.658;2023-06-10T01:16:49;100050.66;;;19.92;74.25
29121;BME280;16191;49.548;8.658;2023-06-10T01:19:16;100044.66;;;19.78;75.59
29121;BME280;16191;49.548;8.658;2023-06-10T01:21:44;100043.44;;;19.82;75.11
29121;BME280;16191;49.548;8.658;2023-06-10T01:24:17;100057.31;;;19.75;76.21
29121;BME280;16191;49.548;8.658;2023-06-10T01:26:48;100041.78;;;19.70;76.70
29121;BME280;16191;49.548;8.658;2023-06-10T01:29:23;100042.25;;;19.75;76.05
29121;BME280;16191;49.548;8.658;2023-06-10T01:32:04;100048.25;;;19.89;74.66
29121;BME280;16191;49.548;8.658;2023-06-10T01:34:34;100046.94;;;19.83;74.87
29121;BME280;16191;49.548;8.658;2023-06-10T01:37:03;100042.13;;;19.77;75.51
29121;BME280;16191;49.548;8.658;2023-06-10T01:39:30;100041.28;;;19.76;75.00
29121;BME280;16191;49.548;8.658;2023-06-10T01:41:58;100040.44;;;19.76;74.68
29121;BME280;16191;49.548;8.658;2023-06-10T01:44:25;100041.28;;;19.76;74.72
29121;BME280;16191;49.548;8.658;2023-06-10T01:46:52;100048.28;;;19.77;74.54
29121;BME280;16191;49.548;8.658;2023-06-10T01:49:23;100038.66;;;19.76;74.42
29121;BME280;16191;49.548;8.658;2023-06-10T01:52:11;100041.16;;;19.78;74.38
29121;BME280;16191;49.548;8.658;2023-06-10T01:54:57;100040.91;;;19.81;73.58
29121;BME280;16191;49.548;8.658;2023-06-10T01:57:44;100042.63;;;19.71;74.34
29121;BME280;16191;49.548;8.658;2023-06-10T02:00:31;100050.25;;;19.64;74.94
29121;BME280;16191;49.548;8.658;2023-06-10T02:03:17;100045.34;;;19.48;76.19
29121;BME280;16191;49.548;8.658;2023-06-10T02:06:05;100048.47;;;19.54;76.08
29121;BME280;16191;49.548;8.658;2023-06-10T02:08:32;100050.16;;;19.55;75.76
29121;BME280;16191;49.548;8.658;2023-06-10T02:10:59;100049.91;;;19.46;76.22
29121;BME280;16191;49.548;8.658;2023-06-10T02:13:28;100048.47;;;19.42;76.87
29121;BME280;16191;49.548;8.658;2023-06-10T02:15:55;100051.25;;;19.41;76.51
29121;BME280;16191;49.548;8.658;2023-06-10T02:18:22;100047.50;;;19.43;75.66
29121;BME280;16191;49.548;8.658;2023-06-10T02:20:48;100041.50;;;19.41;75.45
29121;BME280;16191;49.548;8.658;2023-06-10T02:23:15;100047.75;;;19.40;75.74
29121;BME280;16191;49.548;8.658;2023-06-10T02:25:42;100051.00;;;19.44;75.23
29121;BME280;16191;49.548;8.658;2023-06-10T02:28:09;100051.22;;;19.52;74.57
29121;BME280;16191;49.548;8.658;2023-06-10T02:30:39;100053.66;;;19.44;75.60
29121;BME280;16191;49.548;8.658;2023-06-10T02:33:05;100045.22;;;19.39;76.46
29121;BME280;16191;49.548;8.658;2023-06-10T02:35:38;100050.41;;;19.40;75.85
29121;BME280;16191;49.548;8.658;2023-06-10T02:38:05;100059.19;;;19.41;75.45
29121;BME280;16191;49.548;8.658;2023-06-10T02:40:33;100057.00;;;19.35;75.00
29121;BME280;16191;49.548;8.658;2023-06-10T02:43:00;100059.06;;;19.42;74.32
29121;BME280;16191;49.548;8.658;2023-06-10T02:45:27;100061.09;;;19.39;74.07
29121;BME280;16191;49.548;8.658;2023-06-10T02:47:55;100066.88;;;19.33;74.49
29121;BME280;16191;49.548;8.658;2023-06-10T02:50:22;100069.41;;;19.34;74.09
29121;BME280;16191;49.548;8.658;2023-06-10T02:52:58;100069.41;;;19.34;73.95
29121;BME280;16191;49.548;8.658;2023-06-10T02:55:25;100069.75;;;19.30;74.15
29121;BME280;16191;49.548;8.658;2023-06-10T02:57:57;100071.13;;;19.24;74.46
29121;BME280;16191;49.548;8.658;2023-06-10T03:00:26;100069.31;;;19.25;74.57
29121;BME280;16191;49.548;8.658;2023-06-10T03:02:53;100071.94;;;19.25;74.48
29121;BME280;16191;49.548;8.658;2023-06-10T03:05:29;100071.09;;;19.13;76.49
29121;BME280;16191;49.548;8.658;2023-06-10T03:07:57;100069.78;;;19.07;76.62
29121;BME280;16191;49.548;8.658;2023-06-10T03:10:24;100076.03;;;19.06;77.06
29121;BME280;16191;49.548;8.658;2023-06-10T03:12:51;100070.53;;;18.98;78.76
29121;BME280;16191;49.548;8.658;2023-06-10T03:15:19;100071.72;;;18.94;78.89
29121;BME280;16191;49.548;8.658;2023-06-10T03:17:47;100073.88;;;18.89;79.67
29121;BME280;16191;49.548;8.658;2023-06-10T03:20:14;100077.97;;;18.93;79.80
29121;BME280;16191;49.548;8.658;2023-06-10T03:22:43;100074.94;;;18.87;80.18
29121;BME280;16191;49.548;8.658;2023-06-10T03:25:10;100077.72;;;18.85;79.77
29121;BME280;16191;49.548;8.658;2023-06-10T03:27:43;100071.84;;;18.81;79.68
29121;BME280;16191;49.548;8.658;2023-06-10T03:30:12;100083.59;;;18.89;79.35
29121;BME280;16191;49.548;8.658;2023-06-10T03:32:41;100079.28;;;18.88;78.58
29121;BME280;16191;49.548;8.658;2023-06-10T03:35:10;100075.56;;;18.90;77.99
29121;BME280;16191;49.548;8.658;2023-06-10T03:37:37;100075.78;;;18.87;78.47
29121;BME280;16191;49.548;8.658;2023-06-10T03:40:05;100082.31;;;18.83;79.47
29121;BME280;16191;49.548;8.658;2023-06-10T03:42:34;100073.84;;;18.67;83.06
29121;BME280;16191;49.548;8.658;2023-06-10T03:45:02;100084.19;;;18.70;82.11
29121;BME280;16191;49.548;8.658;2023-06-10T03:47:34;100084.53;;;18.65;82.31
29121;BME280;16191;49.548;8.658;2023-06-10T03:50:05;100073.81;;;18.56;83.79
29121;BME280;16191;49.548;8.658;2023-06-10T03:52:31;100083.66;;;18.54;84.18
29121;BME280;16191;49.548;8.658;2023-06-10T03:54:58;100088.72;;;18.57;83.64
29121;BME280;16191;49.548;8.658;2023-06-10T03:57:26;100086.53;;;18.50;84.80
29121;BME280;16191;49.548;8.658;2023-06-10T03:59:54;100088.81;;;18.55;84.22
29121;BME280;16191;49.548;8.658;2023-06-10T04:02:22;100091.59;;;18.54;84.10
29121;BME280;16191;49.548;8.658;2023-06-10T04:04:49;100083.78;;;18.52;84.81
29121;BME280;16191;49.548;8.658;2023-06-10T04:07:15;100086.63;;;18.49;84.92
29121;BME280;16191;49.548;8.658;2023-06-10T04:09:42;100095.53;;;18.48;84.78
29121;BME280;16191;49.548;8.658;2023-06-10T04:12:09;100093.00;;;18.46;84.82
29121;BME280;16191;49.548;8.658;2023-06-10T04:14:36;100080.41;;;18.50;84.85
29121;BME280;16191;49.548;8.658;2023-06-10T04:17:05;100093.94;;;18.45;84.90
29121;BME280;16191;49.548;8.658;2023-06-10T04:19:36;100083.88;;;18.50;85.08
29121;BME280;16191;49.548;8.658;2023-06-10T04:22:03;100094.34;;;18.52;84.88
29121;BME280;16191;49.548;8.658;2023-06-10T04:24:32;100092.19;;;18.57;85.05
29121;BME280;16191;49.548;8.658;2023-06-10T04:26:59;100105.53;;;18.56;85.53
29121;BME280;16191;49.548;8.658;2023-06-10T04:29:27;100101.03;;;18.45;86.51
29121;BME280;16191;49.548;8.658;2023-06-10T04:31:54;100111.25;;;18.49;86.02
29121;BME280;16191;49.548;8.658;2023-06-10T04:34:20;100092.19;;;18.57;85.17
29121;BME280;16191;49.548;8.658;2023-06-10T04:36:47;100101.72;;;18.60;86.25
29121;BME280;16191;49.548;8.658;2023-06-10T04:39:14;100100.41;;;18.65;85.48
29121;BME280;16191;49.548;8.658;2023-06-10T04:41:43;100102.81;;;18.68;86.26
29121;BME280;16191;49.548;8.658;2023-06-10T04:44:10;100097.28;;;18.71;86.72
29121;BME280;16191;49.548;8.658;2023-06-10T04:46:37;100100.66;;;18.73;87.38
29121;BME280;16191;49.548;8.658;2023-06-10T04:49:04;100101.22;;;18.66;88.41
29121;BME280;16191;49.548;8.658;2023-06-10T04:51:31;100100.03;;;18.70;89.09
29121;BME280;16191;49.548;8.658;2023-06-10T04:53:58;100103.91;;;18.77;88.76
29121;BME280;16191;49.548;8.658;2023-06-10T04:56:29;100109.31;;;18.87;86.35
29121;BME280;16191;49.548;8.658;2023-06-10T04:58:57;100109.31;;;18.87;87.68
29121;BME280;16191;49.548;8.658;2023-06-10T05:01:24;100108.63;;;18.96;86.43
29121;BME280;16191;49.548;8.658;2023-06-10T05:03:51;100110.06;;;19.00;87.16
29121;BME280;16191;49.548;8.658;2023-06-10T05:06:18;100108.88;;;19.04;88.27
29121;BME280;16191;49.548;8.658;2023-06-10T05:08:44;100113.78;;;19.08;86.49
29121;BME280;16191;49.548;8.658;2023-06-10T05:11:11;100110.66;;;19.14;85.55
29121;BME280;16191;49.548;8.658;2023-06-10T05:13:38;100111.75;;;19.23;84.97
29121;BME280;16191;49.548;8.658;2023-06-10T05:16:06;100120.53;;;19.24;84.28
29121;BME280;16191;49.548;8.658;2023-06-10T05:18:34;100118.09;;;19.32;85.16
29121;BME280;16191;49.548;8.658;2023-06-10T05:21:02;100124.34;;;19.31;88.05
29121;BME280;16191;49.548;8.658;2023-06-10T05:23:29;100116.53;;;19.40;88.52
29121;BME280;16191;49.548;8.658;2023-06-10T05:25:56;100114.38;;;19.45;88.63
29121;BME280;16191;49.548;8.658;2023-06-10T05:28:22;100125.53;;;19.49;86.16
29121;BME280;16191;49.548;8.658;2023-06-10T05:30:49;100120.25;;;19.49;84.74
29121;BME280;16191;49.548;8.658;2023-06-10T05:33:16;100131.22;;;19.56;88.64
29121;BME280;16191;49.548;8.658;2023-06-10T05:35:43;100126.66;;;19.58;90.82
29121;BME280;16191;49.548;8.658;2023-06-10T05:38:09;100124.84;;;19.58;94.15
29121;BME280;16191;49.548;8.658;2023-06-10T05:40:36;100124.50;;;19.63;91.89
29121;BME280;16191;49.548;8.658;2023-06-10T05:43:03;100123.78;;;19.61;86.30
29121;BME280;16191;49.548;8.658;2023-06-10T05:45:29;100119.03;;;19.75;84.97
29121;BME280;16191;49.548;8.658;2023-06-10T05:47:56;100123.59;;;19.73;85.58
29121;BME280;16191;49.548;8.658;2023-06-10T05:50:24;100135.88;;;19.85;87.41
29121;BME280;16191;49.548;8.658;2023-06-10T05:52:51;100124.81;;;19.80;88.99
29121;BME280;16191;49.548;8.658;2023-06-10T05:55:20;100135.75;;;19.87;92.69
29121;BME280;16191;49.548;8.658;2023-06-10T05:57:46;100134.03;;;19.97;93.28
29121;BME280;16191;49.548;8.658;2023-06-10T06:00:13;100132.47;;;19.95;94.25
29121;BME280;16191;49.548;8.658;2023-06-10T06:02:41;100141.00;;;19.98;93.59
29121;BME280;16191;49.548;8.658;2023-06-10T06:05:08;100142.00;;;20.18;93.52
29121;BME280;16191;49.548;8.658;2023-06-10T06:07:35;100134.41;;;20.25;93.04
29121;BME280;16191;49.548;8.658;2023-06-10T06:10:02;100144.03;;;20.26;90.96
29121;BME280;16191;49.548;8.658;2023-06-10T06:12:28;100134.13;;;20.39;89.64
29121;BME280;16191;49.548;8.658;2023-06-10T06:14:55;100135.69;;;20.41;85.87
29121;BME280;16191;49.548;8.658;2023-06-10T06:17:22;100133.97;;;20.51;86.15
29121;BME280;16191;49.548;8.658;2023-06-10T06:19:48;100130.84;;;20.67;84.69
29121;BME280;16191;49.548;8.658;2023-06-10T06:22:15;100138.03;;;20.76;81.86
29121;BME280;16191;49.548;8.658;2023-06-10T06:24:46;100135.31;;;20.87;81.30
29121;BME280;16191;49.548;8.658;2023-06-10T06:27:13;100135.91;;;21.01;83.04
29121;BME280;16191;49.548;8.658;2023-06-10T06:29:40;100136.44;;;21.15;82.99
29121;BME280;16191;49.548;8.658;2023-06-10T06:32:07;100130.16;;;21.16;81.65
29121;BME280;16191;49.548;8.658;2023-06-10T06:34:34;100131.38;;;21.33;78.96
29121;BME280;16191;49.548;8.658;2023-06-10T06:37:01;100132.09;;;21.45;80.59
29121;BME280;16191;49.548;8.658;2023-06-10T06:39:30;100129.09;;;21.69;73.27
29121;BME280;16191;49.548;8.658;2023-06-10T06:41:57;100140.44;;;21.80;76.33
29121;BME280;16191;49.548;8.658;2023-06-10T06:44:40;100135.44;;;21.97;71.95
29121;BME280;16191;49.548;8.658;2023-06-10T06:47:07;100142.03;;;22.12;69.73
29121;BME280;16191;49.548;8.658;2023-06-10T06:49:34;100136.88;;;22.10;68.03
29121;BME280;16191;49.548;8.658;2023-06-10T06:52:00;100136.19;;;22.28;67.41
29121;BME280;16191;49.548;8.658;2023-06-10T06:54:27;100146.53;;;22.50;69.96
29121;BME280;16191;49.548;8.658;2023-06-10T06:56:54;100137.00;;;22.57;68.00
29121;BME280;16191;49.548;8.658;2023-06-10T06:59:20;100140.59;;;22.75;64.65
29121;BME280;16191;49.548;8.658;2023-06-10T07:01:47;100136.66;;;22.99;65.41
29121;BME280;16191;49.548;8.658;2023-06-10T07:04:15;100140.72;;;23.03;64.04
29121;BME280;16191;49.548;8.658;2023-06-10T07:06:42;100144.56;;;23.18;63.31
29121;BME280;16191;49.548;8.658;2023-06-10T07:09:08;100145.66;;;23.35;64.31
29121;BME280;16191;49.548;8.658;2023-06-10T07:11:35;100143.78;;;23.54;61.97
29121;BME280;16191;49.548;8.658;2023-06-10T07:14:02;100139.03;;;23.39;60.73
29121;BME280;16191;49.548;8.658;2023-06-10T07:16:29;100146.97;;;23.58;61.16
29121;BME280;16191;49.548;8.658;2023-06-10T07:18:56;100139.47;;;23.71;60.56
29121;BME280;16191;49.548;8.658;2023-06-10T07:21:22;100139.44;;;23.99;60.24
29121;BME280;16191;49.548;8.658;2023-06-10T07:23:49;100150.69;;;24.10;59.96
29121;BME280;16191;49.548;8.658;2023-06-10T07:26:19;100148.34;;;24.07;59.32
29121;BME280;16191;49.548;8.658;2023-06-10T07:28:46;100139.72;;;23.96;59.81
29121;BME280;16191;49.548;8.658;2023-06-10T07:31:12;100142.41;;;24.49;59.70
29121;BME280;16191;49.548;8.658;2023-06-10T07:33:39;100132.66;;;24.57;59.05
29121;BME280;16191;49.548;8.658;2023-06-10T07:36:06;100136.63;;;24.53;58.09
29121;BME280;16191;49.548;8.658;2023-06-10T07:38:33;100134.47;;;24.57;58.93
29121;BME280;16191;49.548;8.658;2023-06-10T07:41:00;100129.75;;;24.51;58.50
29121;BME280;16191;49.548;8.658;2023-06-10T07:43:27;100125.88;;;24.63;57.94
29121;BME280;16191;49.548;8.658;2023-06-10T07:45:54;100127.50;;;24.82;57.75
29121;BME280;16191;49.548;8.658;2023-06-10T07:48:20;100122.88;;;25.10;55.92
29121;BME280;16191;49.548;8.658;2023-06-10T07:50:47;100133.72;;;25.16;54.86
29121;BME280;16191;49.548;8.658;2023-06-10T07:53:14;100122.28;;;24.98;55.27
29121;BME280;16191;49.548;8.658;2023-06-10T07:55:40;100123.34;;;25.05;55.30
29121;BME280;16191;49.548;8.658;2023-06-10T07:58:07;100124.31;;;25.30;54.79
29121;BME280;16191;49.548;8.658;2023-06-10T08:00:33;100129.06;;;25.52;53.78
29121;BME280;16191;49.548;8.658;2023-06-10T08:03:00;100127.19;;;25.45;53.15
29121;BME280;16191;49.548;8.658;2023-06-10T08:05:27;100129.22;;;25.51;53.26
29121;BME280;16191;49.548;8.658;2023-06-10T08:07:55;100122.13;;;25.68;52.18
29121;BME280;16191;49.548;8.658;2023-06-10T08:10:22;100129.06;;;25.94;51.93
29121;BME280;16191;49.548;8.658;2023-06-10T08:12:48;100128.19;;;25.86;52.15
29121;BME280;16191;49.548;8.658;2023-06-10T08:15:15;100129.72;;;26.05;51.67
29121;BME280;16191;49.548;8.658;2023-06-10T08:17:42;100133.38;;;26.04;51.59
29121;BME280;16191;49.548;8.658;2023-06-10T08:20:09;100123.19;;;25.91;50.63
29121;BME280;16191;49.548;8.658;2023-06-10T08:22:35;100119.41;;;26.42;50.72
29121;BME280;16191;49.548;8.658;2023-06-10T08:25:02;100127.94;;;26.62;50.10
29121;BME280;16191;49.548;8.658;2023-06-10T08:27:29;100121.78;;;26.37;49.30
29121;BME280;16191;49.548;8.658;2023-06-10T08:29:56;100128.97;;;26.37;49.24
29121;BME280;16191;49.548;8.658;2023-06-10T08:32:22;100120.41;;;26.57;48.37
29121;BME280;16191;49.548;8.658;2023-06-10T08:34:49;100123.41;;;26.71;48.07
29121;BME280;16191;49.548;8.658;2023-06-10T08:37:16;100116.31;;;27.10;47.53
29121;BME280;16191;49.548;8.658;2023-06-10T08:39:42;100115.69;;;26.84;47.89
29121;BME280;16191;49.548;8.658;2023-06-10T08:42:28;100108.72;;;27.30;47.12
29121;BME280;16191;49.548;8.658;2023-06-10T08:45:02;100110.59;;;27.21;46.93
29121;BME280;16191;49.548;8.658;2023-06-10T08:47:30;100112.84;;;27.49;46.37
29121;BME280;16191;49.548;8.658;2023-06-10T08:50:03;100109.41;;;27.94;45.35
29121;BME280;16191;49.548;8.658;2023-06-10T08:52:37;100103.06;;;27.64;45.57
29121;BME280;16191;49.548;8.658;2023-06-10T08:55:12;100100.25;;;27.88;44.76
29121;BME280;16191;49.548;8.658;2023-06-10T08:57:41;100100.72;;;27.92;44.05
29121;BME280;16191;49.548;8.658;2023-06-10T09:00:09;100100.09;;;28.36;44.01
29121;BME280;16191;49.548;8.658;2023-06-10T09:02:37;100098.66;;;28.25;43.53
29121;BME280;16191;49.548;8.658;2023-06-10T09:05:05;100100.78;;;28.67;42.08
29121;BME280;16191;49.548;8.658;2023-06-10T09:07:32;100098.16;;;28.82;41.21
29121;BME280;16191;49.548;8.658;2023-06-10T09:10:00;100096.66;;;29.23;38.69
29121;BME280;16191;49.548;8.658;2023-06-10T09:12:29;100099.44;;;29.45;38.72
29121;BME280;16191;49.548;8.658;2023-06-10T09:14:56;100101.16;;;29.67;37.81
29121;BME280;16191;49.548;8.658;2023-06-10T09:17:23;100097.88;;;29.50;38.31
29121;BME280;16191;49.548;8.658;2023-06-10T09:19:50;100092.63;;;29.42;38.03
29121;BME280;16191;49.548;8.658;2023-06-10T09:22:17;100097.25;;;29.84;37.63
29121;BME280;16191;49.548;8.658;2023-06-10T09:24:46;100097.47;;;30.04;37.21
29121;BME280;16191;49.548;8.658;2023-06-10T09:27:13;100103.22;;;30.01;37.43
29121;BME280;16191;49.548;8.658;2023-06-10T09:32:13;100092.25;;;30.45;36.03
29121;BME280;16191;49.548;8.658;2023-06-10T09:34:40;100091.16;;;30.40;35.58
29121;BME280;16191;49.548;8.658;2023-06-10T09:37:08;100086.22;;;30.43;36.90
29121;BME280;16191;49.548;8.658;2023-06-10T09:39:38;100093.41;;;30.36;35.83
29121;BME280;16191;49.548;8.658;2023-06-10T09:42:25;100095.69;;;30.60;35.74
29121;BME280;16191;49.548;8.658;2023-06-10T09:44:52;100094.03;;;30.59;35.80
29121;BME280;16191;49.548;8.658;2023-06-10T09:47:20;100094.38;;;30.78;35.06
29121;BME280;16191;49.548;8.658;2023-06-10T09:49:51;100084.97;;;30.67;35.22
29121;BME280;16191;49.548;8.658;2023-06-10T09:52:28;100089.31;;;30.96;35.10
29121;BME280;16191;49.548;8.658;2023-06-10T09:55:00;100091.06;;;31.10;34.07
29121;BME280;16191;49.548;8.658;2023-06-10T09:57:34;100087.25;;;30.98;35.23
29121;BME280;16191;49.548;8.658;2023-06-10T10:00:07;100081.56;;;31.14;34.99
29121;BME280;16191;49.548;8.658;2023-06-10T10:02:48;100085.84;;;31.43;34.72
29121;BME280;16191;49.548;8.658;2023-06-10T10:05:19;100075.88;;;31.37;34.04
29121;BME280;16191;49.548;8.658;2023-06-10T10:07:47;100076.22;;;31.27;35.09
29121;BME280;16191;49.548;8.658;2023-06-10T10:10:16;100071.44;;;31.71;33.88
29121;BME280;16191;49.548;8.658;2023-06-10T10:12:46;100076.47;;;32.13;32.71
29121;BME280;16191;49.548;8.658;2023-06-10T10:15:16;100073.78;;;32.00;33.15
29121;BME280;16191;49.548;8.658;2023-06-10T10:17:49;100066.28;;;31.89;32.53
29121;BME280;16191;49.548;8.658;2023-06-10T10:20:22;100074.47;;;32.22;32.79
29121;BME280;16191;49.548;8.658;2023-06-10T10:22:50;100070.28;;;32.39;31.63
29121;BME280;16191;49.548;8.658;2023-06-10T10:25:32;100073.56;;;31.95;32.31
29121;BME280;16191;49.548;8.658;2023-06-10T10:28:11;100072.16;;;32.45;31.14
29121;BME280;16191;49.548;8.658;2023-06-10T10:30:51;100068.19;;;32.15;31.90
29121;BME280;16191;49.548;8.658;2023-06-10T10:33:22;100068.22;;;32.34;31.44
29121;BME280;16191;49.548;8.658;2023-06-10T10:35:52;100061.16;;;32.33;31.84
29121;BME280;16191;49.548;8.658;2023-06-10T10:38:19;100059.88;;;32.49;30.61
29121;BME280;16191;49.548;8.658;2023-06-10T10:40:48;100071.91;;;32.14;30.83
29121;BME280;16191;49.548;8.658;2023-06-10T10:43:16;100068.81;;;32.63;29.53
29121;BME280;16191;49.548;8.658;2023-06-10T10:45:46;100066.81;;;31.64;30.86
29121;BME280;16191;49.548;8.658;2023-06-10T10:48:13;100058.03;;;32.30;30.83
29121;BME280;16191;49.548;8.658;2023-06-10T10:50:41;100059.69;;;32.57;30.54
29121;BME280;16191;49.548;8.658;2023-06-10T10:53:08;100059.69;;;32.18;30.58
29121;BME280;16191;49.548;8.658;2023-06-10T10:55:34;100063.34;;;33.02;29.12
29121;BME280;16191;49.548;8.658;2023-06-10T10:58:06;100052.31;;;33.11;28.51
29121;BME280;16191;49.548;8.658;2023-06-10T11:00:53;100055.13;;;33.35;28.69
29121;BME280;16191;49.548;8.658;2023-06-10T11:03:21;100045.63;;;33.13;28.89
29121;BME280;16191;49.548;8.658;2023-06-10T11:05:48;100056.16;;;33.34;29.29
29121;BME280;16191;49.548;8.658;2023-06-10T11:10:55;100050.81;;;33.66;28.11
29121;BME280;16191;49.548;8.658;2023-06-10T11:13:22;100054.66;;;33.52;29.58
29121;BME280;16191;49.548;8.658;2023-06-10T11:15:50;100047.63;;;33.82;28.90
29121;BME280;16191;49.548;8.658;2023-06-10T11:18:29;100045.34;;;33.79;29.18
29121;BME280;16191;49.548;8.658;2023-06-10T11:21:00;100043.81;;;33.90;28.45
29121;BME280;16191;49.548;8.658;2023-06-10T11:31:26;100040.13;;;32.09;30.64
29121;BME280;16191;49.548;8.658;2023-06-10T11:36:24;100032.88;;;34.34;28.18
29121;BME280;16191;49.548;8.658;2023-06-10T11:38:55;100035.69;;;33.90;28.98
29121;BME280;16191;49.548;8.658;2023-06-10T11:41:26;100038.63;;;33.88;28.80
29121;BME280;16191;49.548;8.658;2023-06-10T11:43:54;100032.59;;;33.48;29.19
29121;BME280;16191;49.548;8.658;2023-06-10T11:46:23;100033.13;;;34.51;28.05
29121;BME280;16191;49.548;8.658;2023-06-10T11:48:54;100027.25;;;34.54;27.76
29121;BME280;16191;49.548;8.658;2023-06-10T11:51:24;100035.06;;;34.19;27.83
29121;BME280;16191;49.548;8.658;2023-06-10T11:53:52;100032.09;;;33.20;29.44
29121;BME280;16191;49.548;8.658;2023-06-10T11:56:23;100032.25;;;32.60;30.37
29121;BME280;16191;49.548;8.658;2023-06-10T11:59:04;100025.41;;;33.22;29.22
29121;BME280;16191;49.548;8.658;2023-06-10T12:01:33;100026.03;;;33.24;29.29
29121;BME280;16191;49.548;8.658;2023-06-10T12:06:51;100026.81;;;34.76;27.81
29121;BME280;16191;49.548;8.658;2023-06-10T12:12:00;100018.47;;;34.77;27.64
29121;BME280;16191;49.548;8.658;2023-06-10T12:17:18;100018.84;;;33.05;29.30
29121;BME280;16191;49.548;8.658;2023-06-10T12:19:44;100015.22;;;33.31;28.35
29121;BME280;16191;49.548;8.658;2023-06-10T12:22:11;100019.47;;;34.15;27.72
29121;BME280;16191;49.548;8.658;2023-06-10T12:24:46;100020.16;;;33.79;28.28
29121;BME280;16191;49.548;8.658;2023-06-10T12:27:24;100016.44;;;34.91;26.84
29121;BME280;16191;49.548;8.658;2023-06-10T12:29:51;100012.94;;;35.68;26.84
29121;BME280;16191;49.548;8.658;2023-06-10T12:32:22;100015.59;;;35.27;25.86
29121;BME280;16191;49.548;8.658;2023-06-10T12:35:03;100024.56;;;34.72;27.33
29121;BME280;16191;49.548;8.658;2023-06-10T12:37:34;100025.78;;;35.91;25.52
29121;BME280;16191;49.548;8.658;2023-06-10T12:40:01;100013.59;;;35.82;25.30
29121;BME280;16191;49.548;8.658;2023-06-10T12:42:36;100014.94;;;35.73;25.66
29121;BME280;16191;49.548;8.658;2023-06-10T12:45:04;100017.19;;;35.76;25.71
29121;BME280;16191;49.548;8.658;2023-06-10T12:47:35;100019.41;;;35.97;25.71
29121;BME280;16191;49.548;8.658;2023-06-10T12:50:02;100028.41;;;35.38;25.41
29121;BME280;16191;49.548;8.658;2023-06-10T12:52:29;100017.41;;;35.93;25.18
29121;BME280;16191;49.548;8.658;2023-06-10T12:54:56;100016.03;;;36.49;24.04
29121;BME280;16191;49.548;8.658;2023-06-10T12:57:23;100008.03;;;37.05;24.05
29121;BME280;16191;49.548;8.658;2023-06-10T12:59:50;100011.97;;;35.93;25.24
29121;BME280;16191;49.548;8.658;2023-06-10T13:02:19;100006.59;;;36.75;23.56
29121;BME280;16191;49.548;8.658;2023-06-10T13:04:47;100001.47;;;36.90;23.93
29121;BME280;16191;49.548;8.658;2023-06-10T13:07:14;100013.81;;;37.21;24.17
29121;BME280;16191;49.548;8.658;2023-06-10T13:09:42;100001.44;;;37.42;23.34
29121;BME280;16191;49.548;8.658;2023-06-10T13:12:09;100010.69;;;37.29;23.53
29121;BME280;16191;49.548;8.658;2023-06-10T13:14:42;100001.69;;;38.02;22.61
29121;BME280;16191;49.548;8.658;2023-06-10T13:17:08;100010.34;;;38.49;22.61
29121;BME280;16191;49.548;8.658;2023-06-10T13:19:35;100000.63;;;38.20;23.52
29121;BME280;16191;49.548;8.658;2023-06-10T13:22:03;100009.16;;;37.33;23.30
29121;BME280;16191;49.548;8.658;2023-06-10T13:24:29;100003.34;;;37.58;23.52
29121;BME280;16191;49.548;8.658;2023-06-10T13:26:56;99997.19;;;37.62;23.62